Time;durP1;ratioP1;P1;durP2;ratioP2;P2;SDS_P1;SDS_P2;PMS_P1;PMS_P2;Temp;Humidity;BMP_temperature;BMP_pressure;BME280_temperature;BME280_humidity;BME280_pressure;Samples;Min_cycle;Max_cycle;Signal;HPM_P1;HPM_P2
2023/08/27 00:01:11;;;;;;;2.47;2.13;;;;;17.60;98072.00;;;;5094114;28;20512;-69
2023/08/27 00:03:38;;;;;;;3.45;2.05;;;;;17.60;98091.00;;;;5094289;28;20043;-69
2023/08/27 00:06:05;;;;;;;9.05;2.20;;;;;17.70;98090.00;;;;5094201;28;20040;-68
2023/08/27 00:08:31;;;;;;;3.90;2.30;;;;;17.70;98088.00;;;;5094237;28;20127;-70
2023/08/27 00:10:59;;;;;;;3.80;2.42;;;;;17.50;98074.00;;;;5092666;28;20048;-69
2023/08/27 00:13:25;;;;;;;3.05;2.40;;;;;17.40;98077.00;;;;5094230;28;20386;-70
2023/08/27 00:15:52;;;;;;;2.97;2.20;;;;;17.40;98082.00;;;;5093793;28;20040;-68
2023/08/27 00:18:19;;;;;;;4.88;2.20;;;;;17.40;98070.00;;;;5094107;28;20044;-69
2023/08/27 00:20:47;;;;;;;4.53;2.90;;;;;17.30;98071.00;;;;5092422;28;20041;-69
2023/08/27 00:23:13;;;;;;;5.03;2.35;;;;;17.30;98075.00;;;;5094000;28;20044;-69
2023/08/27 00:25:42;;;;;;;3.90;2.60;;;;;17.30;98081.00;;;;5092922;28;20051;-69
2023/08/27 00:28:12;;;;;;;3.90;2.38;;;;;17.30;98076.00;;;;5092424;28;20044;-69
2023/08/27 00:30:39;;;;;;;4.78;2.33;;;;;17.30;98085.00;;;;5092294;28;20493;-68
2023/08/27 00:33:07;;;;;;;4.20;2.25;;;;;17.30;98093.00;;;;5092528;28;20044;-68
2023/08/27 00:35:35;;;;;;;3.30;2.63;;;;;17.30;98097.00;;;;5092277;28;20071;-69
2023/08/27 00:38:04;;;;;;;3.42;2.38;;;;;17.30;98098.00;;;;5092392;28;20048;-67
2023/08/27 00:40:31;;;;;;;4.55;2.50;;;;;17.50;98099.00;;;;5092100;28;20044;-68
2023/08/27 00:42:57;;;;;;;3.05;2.60;;;;;17.40;98086.00;;;;5092306;28;20044;-68
2023/08/27 00:45:25;;;;;;;5.53;2.53;;;;;17.40;98089.00;;;;5092149;28;20055;-69
2023/08/27 00:47:52;;;;;;;3.80;2.55;;;;;17.40;98081.00;;;;5076931;28;20494;-68
2023/08/27 00:50:19;;;;;;;3.50;2.60;;;;;17.30;98076.00;;;;5090955;28;20036;-67
2023/08/27 00:52:48;;;;;;;3.28;2.20;;;;;17.30;98071.00;;;;5092248;28;20052;-67
2023/08/27 00:55:15;;;;;;;3.92;2.45;;;;;17.30;98069.00;;;;5092076;28;20083;-68
2023/08/27 00:57:43;;;;;;;2.78;2.20;;;;;17.30;98075.00;;;;5092022;28;20162;-68
2023/08/27 01:00:10;;;;;;;5.25;3.00;;;;;17.40;98085.00;;;;5091553;28;20077;-68
2023/08/27 01:02:38;;;;;;;3.28;2.38;;;;;17.40;98078.00;;;;5092035;28;20097;-68
2023/08/27 01:05:05;;;;;;;2.50;2.30;;;;;17.40;98066.00;;;;5091897;28;20052;-67
2023/08/27 01:07:39;;;;;;;3.60;2.50;;;;;17.30;98055.00;;;;5091864;28;20496;-67
2023/08/27 01:10:36;;;;;;;2.65;2.13;;;;;17.20;98047.00;;;;5092887;28;20040;-67
2023/08/27 01:13:04;;;;;;;3.35;2.00;;;;;17.10;98048.00;;;;5093192;28;20068;-67
2023/08/27 01:15:32;;;;;;;3.35;2.20;;;;;17.10;98050.00;;;;5096869;28;20070;-67
2023/08/27 01:18:00;;;;;;;3.10;2.25;;;;;17.10;98059.00;;;;5105138;28;20043;-67
2023/08/27 01:20:29;;;;;;;3.00;2.42;;;;;17.20;98040.00;;;;5097585;28;20039;-66
2023/08/27 01:22:55;;;;;;;4.93;2.30;;;;;17.10;98036.00;;;;5100776;28;20070;-66
2023/08/27 01:25:28;;;;;;;4.45;2.20;;;;;17.10;98047.00;;;;5102351;28;20079;-67
2023/08/27 01:28:01;;;;;;;5.43;2.58;;;;;17.20;98047.00;;;;5103824;28;20147;-67
2023/08/27 01:30:36;;;;;;;3.83;2.50;;;;;17.10;98042.00;;;;5104023;28;20110;-66
2023/08/27 01:33:12;;;;;;;2.50;2.10;;;;;17.10;98034.00;;;;5102262;28;20076;-67
2023/08/27 01:35:40;;;;;;;2.30;2.03;;;;;17.10;98029.00;;;;5101856;28;20052;-67
2023/08/27 01:38:07;;;;;;;4.90;2.47;;;;;17.00;98013.00;;;;5099824;28;20044;-66
2023/08/27 01:40:34;;;;;;;3.70;2.08;;;;;17.00;97998.00;;;;5096729;28;20070;-67
2023/08/27 01:43:00;;;;;;;5.60;2.20;;;;;17.00;98008.00;;;;5092048;28;20106;-67
2023/08/27 01:45:27;;;;;;;7.63;2.28;;;;;17.00;98017.00;;;;5093509;28;20416;-68
2023/08/27 01:47:54;;;;;;;4.50;1.95;;;;;17.10;98024.00;;;;5092520;28;20048;-67
2023/08/27 01:50:21;;;;;;;6.65;2.40;;;;;17.20;98044.00;;;;5092042;28;20074;-67
2023/08/27 01:52:47;;;;;;;2.95;1.95;;;;;17.20;98026.00;;;;5091808;28;20078;-67
2023/08/27 01:55:14;;;;;;;3.40;2.60;;;;;17.20;98016.00;;;;5093374;28;20135;-67
2023/08/27 01:57:41;;;;;;;5.13;2.15;;;;;17.10;98027.00;;;;5092236;28;20048;-67
2023/08/27 02:00:11;;;;;;;3.50;2.33;;;;;17.00;98029.00;;;;5091631;28;20044;-67
2023/08/27 02:02:40;;;;;;;3.38;2.30;;;;;17.00;98013.00;;;;5094158;28;20070;-67
2023/08/27 02:05:08;;;;;;;2.88;2.17;;;;;17.00;98006.00;;;;5091609;28;20040;-67
2023/08/27 02:07:39;;;;;;;3.88;2.17;;;;;17.00;97993.00;;;;5091620;28;20075;-68
2023/08/27 02:10:07;;;;;;;2.72;2.08;;;;;17.00;97996.00;;;;5074317;28;20138;-67
2023/08/27 02:12:34;;;;;;;4.63;2.40;;;;;17.20;97996.00;;;;5092241;28;20051;-68
2023/08/27 02:15:03;;;;;;;3.03;2.00;;;;;17.30;97994.00;;;;5090896;28;20121;-68
2023/08/27 02:17:29;;;;;;;5.65;2.35;;;;;17.30;97998.00;;;;5092418;28;20048;-67
2023/08/27 02:19:56;;;;;;;5.85;2.88;;;;;17.40;97999.00;;;;5090480;28;20473;-67
2023/08/27 02:22:23;;;;;;;3.13;2.30;;;;;17.40;98008.00;;;;5091014;28;20109;-68
2023/08/27 02:24:50;;;;;;;4.80;2.25;;;;;17.40;98006.00;;;;5090746;28;20058;-67
2023/08/27 02:27:17;;;;;;;2.95;2.60;;;;;17.30;98002.00;;;;5092024;28;20093;-68
2023/08/27 02:29:43;;;;;;;4.18;2.55;;;;;17.20;98003.00;;;;5091813;28;20078;-68
2023/08/27 02:32:10;;;;;;;3.72;2.50;;;;;17.20;98012.00;;;;5090560;28;20591;-67
2023/08/27 02:34:36;;;;;;;4.60;2.55;;;;;17.30;98016.00;;;;5091969;28;20515;-68
2023/08/27 02:37:03;;;;;;;4.03;2.17;;;;;17.40;98029.00;;;;5090783;28;20101;-68
2023/08/27 02:39:30;;;;;;;4.63;2.20;;;;;17.50;98016.00;;;;5090352;28;20048;-68
2023/08/27 02:41:56;;;;;;;2.55;2.03;;;;;17.50;98016.00;;;;5090573;28;20108;-67
2023/08/27 02:44:23;;;;;;;8.30;3.03;;;;;17.50;98002.00;;;;5090661;28;20044;-67
2023/08/27 02:46:49;;;;;;;2.95;2.55;;;;;17.60;98016.00;;;;5091987;28;20046;-68
2023/08/27 02:49:16;;;;;;;2.97;2.47;;;;;17.70;98016.00;;;;5090349;28;20076;-68
2023/08/27 02:51:43;;;;;;;2.65;2.10;;;;;17.80;98011.00;;;;5090504;28;20048;-67
2023/08/27 02:54:09;;;;;;;2.40;2.20;;;;;17.60;98013.00;;;;5091080;28;20070;-68
2023/08/27 02:56:36;;;;;;;2.33;1.98;;;;;17.40;98009.00;;;;5093294;28;20106;-68
2023/08/27 02:59:04;;;;;;;5.00;2.35;;;;;17.30;98000.00;;;;5090899;28;20135;-68
2023/08/27 03:01:31;;;;;;;2.70;2.22;;;;;17.20;98000.00;;;;5090475;28;20130;-68
2023/08/27 03:03:58;;;;;;;5.18;2.33;;;;;17.20;98001.00;;;;5090821;28;20041;-67
2023/08/27 03:06:25;;;;;;;4.53;2.20;;;;;17.30;98005.00;;;;5090631;28;20138;-67
2023/08/27 03:08:51;;;;;;;5.25;2.15;;;;;17.40;98015.00;;;;5090415;28;20044;-66
2023/08/27 03:11:18;;;;;;;5.93;2.40;;;;;17.50;98008.00;;;;5090282;28;20493;-67
2023/08/27 03:13:45;;;;;;;3.63;2.20;;;;;17.50;97999.00;;;;5092341;28;20059;-67
2023/08/27 03:16:11;;;;;;;4.80;2.58;;;;;17.40;98009.00;;;;5094007;28;20040;-67
2023/08/27 03:18:38;;;;;;;2.33;2.10;;;;;17.40;98012.00;;;;5094021;28;20056;-67
2023/08/27 03:21:05;;;;;;;3.50;2.20;;;;;17.40;98001.00;;;;5094964;28;20036;-67
2023/08/27 03:23:35;;;;;;;2.50;2.30;;;;;17.40;97998.00;;;;5094224;28;20105;-67
2023/08/27 03:26:03;;;;;;;3.75;2.50;;;;;17.40;97995.00;;;;5095220;28;20415;-68
2023/08/27 03:28:30;;;;;;;3.67;2.30;;;;;17.50;97988.00;;;;5095320;28;20044;-69
2023/08/27 03:30:56;;;;;;;3.40;2.50;;;;;17.50;97986.00;;;;5093579;28;20485;-68
2023/08/27 03:33:23;;;;;;;2.88;2.50;;;;;17.50;97982.00;;;;5077026;28;20098;-69
2023/08/27 03:35:52;;;;;;;3.65;2.00;;;;;17.50;97985.00;;;;5093535;28;20416;-66
2023/08/27 03:38:19;;;;;;;4.63;3.25;;;;;17.60;97978.00;;;;5097365;28;20083;-67
2023/08/27 03:40:49;;;;;;;2.92;2.50;;;;;17.50;97973.00;;;;5103544;28;20058;-67
2023/08/27 03:43:17;;;;;;;5.30;3.22;;;;;17.40;97978.00;;;;5109255;28;20043;-67
2023/08/27 03:45:44;;;;;;;3.63;2.47;;;;;17.40;97976.00;;;;5114120;28;20064;-67
2023/08/27 03:48:10;;;;;;;6.40;3.35;;;;;17.50;97973.00;;;;5116983;28;20043;-66
2023/08/27 03:50:39;;;;;;;5.97;2.58;;;;;17.50;97973.00;;;;5116210;28;20024;-66
2023/08/27 03:53:07;;;;;;;4.85;2.72;;;;;17.50;97971.00;;;;5116271;28;20044;-68
2023/08/27 03:55:38;;;;;;;7.07;2.42;;;;;17.50;97966.00;;;;5115651;28;20044;-67
2023/08/27 03:58:07;;;;;;;2.15;1.95;;;;;17.50;97969.00;;;;5096187;28;20086;-67
2023/08/27 04:00:34;;;;;;;3.42;2.30;;;;;17.50;97965.00;;;;5110877;28;20058;-67
2023/08/27 04:03:02;;;;;;;5.68;2.38;;;;;17.50;97965.00;;;;5113626;28;20103;-67
2023/08/27 04:05:29;;;;;;;3.25;2.22;;;;;17.50;97952.00;;;;5115852;28;20047;-66
2023/08/27 04:07:56;;;;;;;2.47;2.28;;;;;17.50;97956.00;;;;5116501;28;20056;-67
2023/08/27 04:10:23;;;;;;;3.42;2.38;;;;;17.50;97965.00;;;;5117944;28;20035;-67
2023/08/27 04:12:49;;;;;;;4.13;2.58;;;;;17.50;97970.00;;;;5118249;28;20108;-67
2023/08/27 04:15:16;;;;;;;4.03;2.60;;;;;17.50;97966.00;;;;5119028;28;20112;-68
2023/08/27 04:17:42;;;;;;;4.55;2.58;;;;;17.50;97959.00;;;;5118492;28;20051;-67
2023/08/27 04:20:09;;;;;;;6.22;2.63;;;;;17.50;97961.00;;;;5117791;28;20032;-67
2023/08/27 04:22:37;;;;;;;4.22;2.47;;;;;17.40;97959.00;;;;5118543;28;20027;-67
2023/08/27 04:25:04;;;;;;;3.65;2.78;;;;;17.40;97964.00;;;;5117125;28;20051;-69
2023/08/27 04:27:31;;;;;;;5.53;2.28;;;;;17.40;97967.00;;;;5117458;28;20096;-67
2023/08/27 04:29:57;;;;;;;4.90;2.50;;;;;17.40;97964.00;;;;5119338;28;20032;-68
2023/08/27 04:32:25;;;;;;;3.10;2.15;;;;;17.40;97959.00;;;;5119442;28;20027;-67
2023/08/27 04:34:51;;;;;;;4.55;2.55;;;;;17.30;97964.00;;;;5118999;28;20062;-68
2023/08/27 04:37:18;;;;;;;2.47;2.20;;;;;17.30;97953.00;;;;5120640;28;20035;-67
2023/08/27 04:39:45;;;;;;;4.00;2.55;;;;;17.30;97955.00;;;;5119461;28;20024;-66
2023/08/27 04:42:11;;;;;;;4.47;2.10;;;;;17.30;97960.00;;;;5119789;28;20051;-66
2023/08/27 04:44:38;;;;;;;8.18;2.70;;;;;17.30;97963.00;;;;5118467;28;20032;-67
2023/08/27 04:47:05;;;;;;;4.88;2.17;;;;;17.30;97958.00;;;;5111119;28;20048;-67
2023/08/27 04:49:32;;;;;;;4.18;2.33;;;;;17.20;97964.00;;;;5097116;28;20101;-68
2023/08/27 04:51:58;;;;;;;6.95;2.53;;;;;17.20;97984.00;;;;5094281;28;20691;-67
2023/08/27 04:54:25;;;;;;;5.72;2.50;;;;;17.10;97977.00;;;;5095119;28;20040;-68
2023/08/27 04:56:51;;;;;;;3.38;2.15;;;;;17.10;97983.00;;;;5093068;28;20044;-67
2023/08/27 04:59:18;;;;;;;3.42;2.47;;;;;17.10;97979.00;;;;5092531;28;20070;-67
2023/08/27 05:01:44;;;;;;;4.88;3.00;;;;;17.10;97989.00;;;;5092398;28;20048;-67
2023/08/27 05:04:11;;;;;;;3.10;2.88;;;;;17.20;97991.00;;;;5095705;28;20040;-67
2023/08/27 05:06:37;;;;;;;4.85;2.72;;;;;17.20;97988.00;;;;5094055;28;20146;-68
2023/08/27 05:09:04;;;;;;;4.55;2.80;;;;;17.20;97983.00;;;;5092251;28;20055;-67
2023/08/27 05:11:31;;;;;;;3.45;2.33;;;;;17.20;97986.00;;;;5092053;28;20068;-67
2023/08/27 05:13:58;;;;;;;4.88;2.58;;;;;17.20;97977.00;;;;5092018;28;20071;-69
2023/08/27 05:16:24;;;;;;;3.33;2.50;;;;;17.20;97972.00;;;;5092115;28;20047;-68
2023/08/27 05:18:51;;;;;;;5.38;2.42;;;;;17.30;97980.00;;;;5091953;28;20130;-68
2023/08/27 05:21:17;;;;;;;5.90;2.30;;;;;17.20;97979.00;;;;5091869;28;20040;-68
2023/08/27 05:23:44;;;;;;;4.78;2.60;;;;;17.30;97977.00;;;;5093219;28;20474;-68
2023/08/27 05:26:10;;;;;;;6.53;2.67;;;;;17.30;97969.00;;;;5091645;28;20089;-68
2023/08/27 05:28:37;;;;;;;4.45;2.50;;;;;17.30;97958.00;;;;5093057;28;20091;-68
2023/08/27 05:31:05;;;;;;;4.70;2.40;;;;;17.30;97950.00;;;;5092297;28;20048;-68
2023/08/27 05:33:31;;;;;;;2.88;2.35;;;;;17.40;97949.00;;;;5093631;28;20090;-68
2023/08/27 05:35:58;;;;;;;5.45;2.70;;;;;17.30;97942.00;;;;5091799;28;20142;-67
2023/08/27 05:38:24;;;;;;;3.30;2.67;;;;;17.10;97942.00;;;;5096974;28;20132;-68
2023/08/27 05:40:52;;;;;;;6.20;2.95;;;;;17.10;97950.00;;;;5096409;28;20055;-68
2023/08/27 05:43:19;;;;;;;2.97;2.30;;;;;17.30;97958.00;;;;5080087;28;20051;-68
2023/08/27 05:45:46;;;;;;;4.35;3.25;;;;;17.40;97968.00;;;;5096752;28;20081;-68
2023/08/27 05:48:15;;;;;;;7.90;3.10;;;;;17.50;97963.00;;;;5095006;28;20136;-68
2023/08/27 05:50:44;;;;;;;4.22;3.55;;;;;17.50;97959.00;;;;5092225;28;20044;-68
2023/08/27 05:53:11;;;;;;;4.55;3.13;;;;;17.50;97954.00;;;;5091462;28;20040;-69
2023/08/27 05:55:37;;;;;;;6.10;3.60;;;;;17.50;97951.00;;;;5091268;28;20048;-69
2023/08/27 05:58:04;;;;;;;5.95;3.45;;;;;17.50;97952.00;;;;5091102;28;20066;-68
2023/08/27 06:00:32;;;;;;;4.43;3.40;;;;;17.40;97956.00;;;;5091108;28;20055;-69
2023/08/27 06:02:59;;;;;;;3.88;3.30;;;;;17.40;97957.00;;;;5091270;28;20149;-69
2023/08/27 06:05:26;;;;;;;7.40;3.15;;;;;17.50;97951.00;;;;5090971;28;20044;-68
2023/08/27 06:07:52;;;;;;;3.45;2.88;;;;;17.50;97961.00;;;;5091113;28;20074;-69
2023/08/27 06:10:19;;;;;;;7.85;3.70;;;;;17.60;97947.00;;;;5090927;28;20131;-69
2023/08/27 06:12:47;;;;;;;6.78;3.45;;;;;17.70;97953.00;;;;5090985;28;20071;-68
2023/08/27 06:15:13;;;;;;;4.18;2.88;;;;;17.80;97967.00;;;;5092346;28;20044;-69
2023/08/27 06:17:40;;;;;;;6.15;3.15;;;;;17.80;97963.00;;;;5091076;28;20044;-68
2023/08/27 06:20:07;;;;;;;7.15;3.95;;;;;17.70;97966.00;;;;5090720;28;20300;-68
2023/08/27 06:22:34;;;;;;;7.20;4.05;;;;;17.80;97962.00;;;;5090920;28;20039;-68
2023/08/27 06:25:01;;;;;;;9.57;4.20;;;;;17.80;97961.00;;;;5090915;28;20052;-68
2023/08/27 06:27:29;;;;;;;9.75;3.45;;;;;17.80;97958.00;;;;5090929;28;20054;-68
2023/08/27 06:29:56;;;;;;;5.68;2.95;;;;;17.60;97960.00;;;;5090770;28;20496;-69
2023/08/27 06:32:23;;;;;;;8.15;3.80;;;;;17.40;97948.00;;;;5090943;28;20044;-68
2023/08/27 06:34:49;;;;;;;8.15;3.90;;;;;17.20;97939.00;;;;5090602;28;20467;-68
2023/08/27 06:37:16;;;;;;;5.13;3.70;;;;;17.10;97950.00;;;;5090792;28;20394;-69
2023/08/27 06:39:43;;;;;;;5.78;3.40;;;;;17.30;97963.00;;;;5073769;28;20047;-69
2023/08/27 06:42:09;;;;;;;5.15;3.22;;;;;17.30;97958.00;;;;5090859;28;20040;-68
2023/08/27 06:44:36;;;;;;;5.32;3.60;;;;;17.40;97958.00;;;;5074042;28;20076;-68
2023/08/27 06:47:04;;;;;;;8.05;4.63;;;;;17.40;97959.00;;;;5090787;28;20044;-68
2023/08/27 06:49:30;;;;;;;5.53;3.35;;;;;17.40;97958.00;;;;5093717;28;20426;-69
2023/08/27 06:51:57;;;;;;;6.50;3.92;;;;;17.40;97965.00;;;;5096025;28;20403;-69
2023/08/27 06:54:24;;;;;;;5.25;3.08;;;;;17.50;97975.00;;;;5094568;28;20051;-68
2023/08/27 06:56:50;;;;;;;5.70;3.60;;;;;17.50;97978.00;;;;5094432;28;20474;-68
2023/08/27 06:59:18;;;;;;;7.50;3.20;;;;;17.50;97975.00;;;;5095576;28;20127;-68
2023/08/27 07:01:45;;;;;;;5.50;3.25;;;;;17.60;97968.00;;;;5094330;28;20109;-68
2023/08/27 07:04:12;;;;;;;6.53;3.13;;;;;17.70;97955.00;;;;5094021;28;20044;-69
2023/08/27 07:06:39;;;;;;;5.38;3.47;;;;;17.90;97952.00;;;;5094134;28;20169;-69
2023/08/27 07:09:05;;;;;;;4.93;2.55;;;;;18.00;97946.00;;;;5095395;28;20040;-69
2023/08/27 07:11:37;;;;;;;3.40;2.78;;;;;18.20;97944.00;;;;5095153;28;20046;-67
2023/08/27 07:14:04;;;;;;;4.68;2.80;;;;;18.20;97944.00;;;;5094229;28;20047;-67
2023/08/27 07:16:31;;;;;;;4.22;2.85;;;;;18.20;97950.00;;;;5093909;28;20048;-67
2023/08/27 07:18:57;;;;;;;15.23;8.98;;;;;18.20;97958.00;;;;5095147;28;20083;-67
2023/08/27 07:21:24;;;;;;;3.60;2.72;;;;;18.20;97973.00;;;;5093660;28;20105;-68
2023/08/27 07:23:51;;;;;;;4.63;3.03;;;;;18.20;97980.00;;;;5093978;28;20504;-67
2023/08/27 07:26:18;;;;;;;4.32;3.70;;;;;18.30;97984.00;;;;5093818;28;20047;-68
2023/08/27 07:28:45;;;;;;;4.25;3.05;;;;;18.30;97976.00;;;;5093601;28;20044;-68
2023/08/27 07:31:12;;;;;;;6.88;3.35;;;;;18.30;97980.00;;;;5093638;28;20052;-67
2023/08/27 07:33:39;;;;;;;5.38;3.70;;;;;18.50;97981.00;;;;5077067;28;20044;-67
2023/08/27 07:36:06;;;;;;;4.65;3.13;;;;;18.40;97962.00;;;;5093779;28;20048;-68
2023/08/27 07:38:39;;;;;;;8.18;4.63;;;;;18.50;97975.00;;;;5093524;28;20390;-66
2023/08/27 07:41:06;;;;;;;5.30;3.15;;;;;18.50;97980.00;;;;5093335;28;20147;-66
2023/08/27 07:43:32;;;;;;;4.35;3.08;;;;;18.70;97979.00;;;;5093456;28;20079;-68
2023/08/27 07:45:59;;;;;;;2.83;2.50;;;;;18.90;97976.00;;;;5093472;28;20101;-66
2023/08/27 07:48:27;;;;;;;7.07;2.60;;;;;19.00;97987.00;;;;5076934;28;20083;-66
2023/08/27 07:50:54;;;;;;;3.83;2.92;;;;;19.10;97992.00;;;;5077050;28;20093;-67
2023/08/27 07:53:20;;;;;;;4.57;3.20;;;;;19.10;97984.00;;;;5094772;28;20040;-67
2023/08/27 07:55:47;;;;;;;5.72;3.30;;;;;19.10;97986.00;;;;5093090;28;20521;-67
2023/08/27 07:58:13;;;;;;;3.47;2.75;;;;;19.10;97995.00;;;;5093287;28;20413;-67
2023/08/27 08:00:40;;;;;;;5.57;3.90;;;;;19.20;97991.00;;;;5075799;28;20102;-67
2023/08/27 08:03:07;;;;;;;4.05;2.90;;;;;19.20;97992.00;;;;5093295;28;20044;-67
2023/08/27 08:05:34;;;;;;;4.50;3.20;;;;;19.30;97988.00;;;;5094579;28;20040;-67
2023/08/27 08:08:01;;;;;;;5.15;3.60;;;;;19.40;97990.00;;;;5093520;28;20040;-68
2023/08/27 08:10:28;;;;;;;6.60;4.80;;;;;19.50;97989.00;;;;5094532;28;20051;-67
2023/08/27 08:12:54;;;;;;;12.93;11.10;;;;;19.60;97982.00;;;;5093177;28;20523;-66
2023/08/27 08:15:21;;;;;;;5.47;4.95;;;;;19.60;97983.00;;;;5093252;28;20047;-67
2023/08/27 08:17:47;;;;;;;4.18;3.63;;;;;19.80;97985.00;;;;5094538;28;20036;-67
2023/08/27 08:20:14;;;;;;;3.92;3.00;;;;;20.00;97993.00;;;;5094180;28;20123;-67
2023/08/27 08:22:41;;;;;;;7.43;3.83;;;;;20.20;97993.00;;;;5094409;28;20127;-67
2023/08/27 08:25:08;;;;;;;3.92;3.15;;;;;20.40;98009.00;;;;5093899;28;20044;-68
2023/08/27 08:27:35;;;;;;;3.30;2.72;;;;;20.50;98028.00;;;;5093744;28;20576;-66
2023/08/27 08:30:03;;;;;;;3.67;2.75;;;;;20.60;98044.00;;;;5093721;28;20047;-66
2023/08/27 08:32:30;;;;;;;4.05;3.03;;;;;20.70;98042.00;;;;5093879;28;20496;-66
2023/08/27 08:34:56;;;;;;;4.32;2.95;;;;;20.90;98039.00;;;;5075652;28;20649;-66
2023/08/27 08:37:23;;;;;;;4.32;3.22;;;;;21.20;98039.00;;;;5093667;28;20043;-66
2023/08/27 08:39:49;;;;;;;3.42;3.13;;;;;21.50;98029.00;;;;5093374;28;20062;-66
2023/08/27 08:42:38;;;;;;;7.68;2.90;;;;;21.70;98025.00;;;;5094036;28;20449;-66
2023/08/27 08:45:15;;;;;;;3.65;3.17;;;;;21.70;98028.00;;;;5092777;28;20439;-66
2023/08/27 08:47:43;;;;;;;5.25;3.20;;;;;21.80;98018.00;;;;5094116;28;20044;-66
2023/08/27 08:50:13;;;;;;;6.85;3.13;;;;;21.90;98024.00;;;;5093577;28;20114;-66
2023/08/27 08:52:42;;;;;;;5.50;2.60;;;;;22.00;98024.00;;;;5092516;28;20485;-66
2023/08/27 08:55:10;;;;;;;5.18;3.40;;;;;22.20;98023.00;;;;5093640;28;20044;-66
2023/08/27 08:57:43;;;;;;;5.00;2.75;;;;;22.30;98029.00;;;;5093413;28;20051;-66
2023/08/27 09:00:12;;;;;;;4.55;2.55;;;;;22.30;98013.00;;;;5093405;28;20573;-66
2023/08/27 09:02:39;;;;;;;3.22;2.83;;;;;22.50;98024.00;;;;5093821;28;20466;-65
2023/08/27 09:05:09;;;;;;;4.18;2.75;;;;;22.60;98023.00;;;;5093447;28;20044;-65
2023/08/27 09:07:38;;;;;;;3.30;2.70;;;;;22.60;98016.00;;;;5093301;28;20483;-69
2023/08/27 09:10:08;;;;;;;5.15;2.47;;;;;22.60;98004.00;;;;5091641;28;20055;-67
2023/08/27 09:12:39;;;;;;;5.43;2.65;;;;;22.70;98011.00;;;;5092902;28;20042;-66
2023/08/27 09:15:10;;;;;;;4.00;2.15;;;;;22.80;98003.00;;;;5092205;28;20056;-66
2023/08/27 09:17:37;;;;;;;3.47;2.50;;;;;23.00;98001.00;;;;5091970;28;20054;-66
2023/08/27 09:20:06;;;;;;;3.72;2.20;;;;;23.10;98005.00;;;;5093199;28;20059;-66
2023/08/27 09:22:35;;;;;;;4.63;2.80;;;;;23.10;97997.00;;;;5093193;28;20459;-66
2023/08/27 09:25:03;;;;;;;2.83;2.08;;;;;23.10;98002.00;;;;5093381;28;20036;-66
2023/08/27 09:27:31;;;;;;;6.47;2.75;;;;;23.10;97998.00;;;;5093462;28;20054;-66
2023/08/27 09:30:00;;;;;;;5.82;2.22;;;;;23.10;97993.00;;;;5092310;28;20036;-66
2023/08/27 09:32:27;;;;;;;6.00;2.30;;;;;23.00;97997.00;;;;5092926;28;20048;-66
2023/08/27 09:35:02;;;;;;;5.35;2.95;;;;;22.90;97990.00;;;;5092813;28;20452;-66
2023/08/27 09:37:36;;;;;;;3.35;2.30;;;;;22.70;97989.00;;;;5091502;28;20040;-66
2023/08/27 09:40:07;;;;;;;6.95;3.00;;;;;22.60;97979.00;;;;5092449;28;20126;-65
2023/08/27 09:42:34;;;;;;;2.83;2.05;;;;;22.40;97979.00;;;;5092396;28;20036;-65
2023/08/27 09:45:01;;;;;;;8.20;2.65;;;;;22.30;97965.00;;;;5092532;28;20131;-66
2023/08/27 09:47:32;;;;;;;4.05;2.50;;;;;22.30;97974.00;;;;5091480;28;20043;-66
2023/08/27 09:50:02;;;;;;;4.90;2.72;;;;;22.30;97976.00;;;;5092407;28;20048;-65
2023/08/27 09:52:29;;;;;;;2.85;2.00;;;;;22.20;97991.00;;;;5092615;28;20089;-66
2023/08/27 09:54:56;;;;;;;5.72;2.60;;;;;22.20;97986.00;;;;5092525;28;20392;-66
2023/08/27 09:57:22;;;;;;;4.35;2.53;;;;;22.20;97986.00;;;;5092442;28;20056;-66
2023/08/27 09:59:50;;;;;;;3.28;2.47;;;;;22.30;97996.00;;;;5092431;28;20067;-65
2023/08/27 10:02:16;;;;;;;4.13;2.20;;;;;22.30;97992.00;;;;5092752;28;20040;-66
2023/08/27 10:04:52;;;;;;;5.03;2.20;;;;;22.40;97995.00;;;;5092346;28;20048;-66
2023/08/27 10:07:18;;;;;;;6.50;2.50;;;;;22.40;97985.00;;;;5092403;28;20040;-67
2023/08/27 10:09:53;;;;;;;136.13;114.85;;;;;22.60;97977.00;;;;5090860;28;20067;-66
2023/08/27 10:12:21;;;;;;;4.18;2.75;;;;;22.80;97981.00;;;;5092223;28;20515;-66
2023/08/27 10:14:48;;;;;;;5.25;3.17;;;;;23.00;97987.00;;;;5091928;28;20052;-66
2023/08/27 10:17:15;;;;;;;32.38;16.23;;;;;23.30;97983.00;;;;5092306;28;20044;-68
2023/08/27 10:19:43;;;;;;;3.78;2.30;;;;;23.60;97981.00;;;;5090953;28;20047;-67
2023/08/27 10:22:10;;;;;;;24.23;12.25;;;;;23.80;97970.00;;;;5092966;28;20062;-66
2023/08/27 10:24:38;;;;;;;30.08;13.82;;;;;24.00;97976.00;;;;5096348;28;20097;-66
2023/08/27 10:27:05;;;;;;;48.95;20.52;;;;;24.20;97983.00;;;;5096307;28;20052;-66
2023/08/27 10:29:33;;;;;;;6.60;3.90;;;;;24.20;97983.00;;;;5096009;28;20058;-67
2023/08/27 10:32:00;;;;;;;23.25;11.27;;;;;24.10;97983.00;;;;5096268;28;20067;-66
2023/08/27 10:34:30;;;;;;;16.70;7.72;;;;;24.00;97985.00;;;;5096036;28;20040;-65
2023/08/27 10:37:02;;;;;;;71.65;30.23;;;;;24.00;97986.00;;;;5095219;28;20064;-66
2023/08/27 10:39:30;;;;;;;2.90;2.47;;;;;23.90;97986.00;;;;5096354;28;20047;-66
2023/08/27 10:41:57;;;;;;;11.15;5.32;;;;;23.80;97991.00;;;;5095015;28;20044;-66
2023/08/27 10:44:23;;;;;;;3.47;2.10;;;;;23.80;97994.00;;;;5096073;28;20036;-67
2023/08/27 10:47:11;;;;;;;2.83;1.60;;;;;23.60;97993.00;;;;5096142;28;20126;-67
2023/08/27 10:49:38;;;;;;;45.33;21.05;;;;;23.40;97983.00;;;;5095676;28;20118;-68
2023/08/27 10:52:46;;;;;;;11.20;6.07;;;;;23.50;97979.00;;;;5095795;28;20046;-68
2023/08/27 10:55:13;;;;;;;4.65;2.33;;;;;23.50;97989.00;;;;5094421;28;20131;-67
2023/08/27 10:57:39;;;;;;;55.40;24.55;;;;;23.50;97987.00;;;;5095746;28;20170;-68
2023/08/27 11:00:10;;;;;;;71.07;30.60;;;;;23.60;97993.00;;;;5095591;28;20467;-66
2023/08/27 11:03:00;;;;;;;19.70;8.82;;;;;23.70;97994.00;;;;5095710;28;20123;-66
2023/08/27 11:05:28;;;;;;;3.35;1.90;;;;;23.70;97989.00;;;;5095723;28;20065;-66
2023/08/27 11:07:59;;;;;;;8.20;4.70;;;;;23.70;97986.00;;;;5095862;28;20040;-66
2023/08/27 11:10:32;;;;;;;3.40;2.47;;;;;23.70;97972.00;;;;5095295;28;20122;-66
2023/08/27 11:12:59;;;;;;;5.78;3.22;;;;;23.70;97968.00;;;;5095470;28;20119;-66
2023/08/27 11:15:32;;;;;;;5.15;2.53;;;;;23.80;97977.00;;;;5095208;28;20055;-67
2023/08/27 11:17:59;;;;;;;;;;;;;23.90;97991.00;;;;5095708;28;20633;-66
2023/08/27 11:20:27;;;;;;;3.22;1.80;;;;;24.00;97988.00;;;;5095427;28;19927;-66
2023/08/27 11:23:00;;;;;;;113.47;48.38;;;;;24.00;97992.00;;;;5095002;28;20044;-66
2023/08/27 11:25:29;;;;;;;32.30;15.10;;;;;23.80;97985.00;;;;5094994;28;20040;-66
2023/08/27 11:28:00;;;;;;;92.63;40.95;;;;;23.80;97990.00;;;;5094799;28;20278;-66
2023/08/27 11:30:28;;;;;;;6.70;2.60;;;;;23.90;97993.00;;;;5094806;28;20059;-65
2023/08/27 11:32:56;;;;;;;40.88;19.25;;;;;23.90;97986.00;;;;5094983;28;20460;-65
2023/08/27 11:35:24;;;;;;;23.38;10.65;;;;;24.00;97982.00;;;;5093997;28;20040;-65
2023/08/27 11:37:51;;;;;;;129.63;59.88;;;;;24.10;97981.00;;;;5095117;28;20040;-65
2023/08/27 11:40:22;;;;;;;26.35;11.95;;;;;24.20;97976.00;;;;5094572;28;20048;-66
2023/08/27 11:42:50;;;;;;;12.07;5.70;;;;;24.20;97972.00;;;;5093462;28;20044;-66
2023/08/27 11:45:17;;;;;;;23.83;11.20;;;;;24.20;97982.00;;;;5094487;28;20438;-66
2023/08/27 11:47:44;;;;;;;2.03;1.50;;;;;24.20;97984.00;;;;5094690;28;20046;-66
2023/08/27 11:50:11;;;;;;;29.73;15.68;;;;;24.10;97977.00;;;;5094403;28;20044;-67
2023/08/27 11:52:39;;;;;;;2.22;1.65;;;;;24.20;97989.00;;;;5094599;28;20467;-66
2023/08/27 11:55:07;;;;;;;4.10;2.83;;;;;24.20;97988.00;;;;5094509;28;20075;-65
2023/08/27 11:57:34;;;;;;;3.15;1.83;;;;;24.20;97987.00;;;;5094873;28;20384;-66
2023/08/27 12:00:11;;;;;;;3.05;1.92;;;;;24.20;97986.00;;;;5094720;28;20044;-65
2023/08/27 12:02:38;;;;;;;3.78;1.83;;;;;24.20;97986.00;;;;5094367;28;20047;-66
2023/08/27 12:05:08;;;;;;;3.72;1.98;;;;;24.30;97986.00;;;;5094693;28;20052;-66
2023/08/27 12:07:35;;;;;;;2.55;1.73;;;;;24.40;97987.00;;;;5095464;28;20072;-66
2023/08/27 12:10:21;;;;;;;3.28;1.70;;;;;24.50;97987.00;;;;5094331;28;20044;-66
2023/08/27 12:12:49;;;;;;;2.45;1.20;;;;;24.60;97979.00;;;;5093580;28;20397;-66
2023/08/27 12:15:15;;;;;;;3.45;1.48;;;;;24.70;97974.00;;;;5094966;28;20048;-66
2023/08/27 12:17:42;;;;;;;3.42;2.17;;;;;24.70;97973.00;;;;5095052;28;20127;-66
2023/08/27 12:20:10;;;;;;;3.05;1.73;;;;;24.60;97981.00;;;;5094239;28;20101;-66